sensor_id;sensor_type;location;lat;lon;timestamp;P1;durP1;ratioP1;P2;durP2;ratioP2
11228;SDS011;5671;47.936;8.716;2023-08-17T00:00:54;5.57;;;3.30;;
11228;SDS011;5671;47.936;8.716;2023-08-17T00:03:21;4.27;;;3.37;;
11228;SDS011;5671;47.936;8.716;2023-08-17T00:05:48;4.97;;;3.40;;
11228;SDS011;5671;47.936;8.716;2023-08-17T00:08:14;4.83;;;2.80;;
11228;SDS011;5671;47.936;8.716;2023-08-17T00:10:42;6.57;;;3.30;;
11228;SDS011;5671;47.936;8.716;2023-08-17T00:13:10;4.60;;;3.30;;
11228;SDS011;5671;47.936;8.716;2023-08-17T00:15:39;5.97;;;3.33;;
11228;SDS011;5671;47.936;8.716;2023-08-17T00:18:06;3.77;;;3.17;;
11228;SDS011;5671;47.936;8.716;2023-08-17T00:20:33;4.87;;;3.10;;
11228;SDS011;5671;47.936;8.716;2023-08-17T00:23:00;8.13;;;3.33;;
11228;SDS011;5671;47.936;8.716;2023-08-17T00:25:26;7.70;;;3.70;;
11228;SDS011;5671;47.936;8.716;2023-08-17T00:27:53;6.63;;;3.50;;
11228;SDS011;5671;47.936;8.716;2023-08-17T00:30:21;7.93;;;3.17;;
11228;SDS011;5671;47.936;8.716;2023-08-17T00:32:48;4.60;;;3.50;;
11228;SDS011;5671;47.936;8.716;2023-08-17T00:35:15;8.90;;;3.60;;
11228;SDS011;5671;47.936;8.716;2023-08-17T00:37:42;6.27;;;3.10;;
11228;SDS011;5671;47.936;8.716;2023-08-17T00:40:09;8.53;;;3.40;;
11228;SDS011;5671;47.936;8.716;2023-08-17T00:42:36;6.50;;;3.53;;
11228;SDS011;5671;47.936;8.716;2023-08-17T00:45:04;6.40;;;3.27;;
11228;SDS011;5671;47.936;8.716;2023-08-17T00:47:32;7.07;;;3.97;;
11228;SDS011;5671;47.936;8.716;2023-08-17T00:49:59;7.27;;;3.70;;
11228;SDS011;5671;47.936;8.716;2023-08-17T00:52:27;4.23;;;3.60;;
11228;SDS011;5671;47.936;8.716;2023-08-17T00:54:54;6.73;;;3.17;;
11228;SDS011;5671;47.936;8.716;2023-08-17T00:57:23;5.57;;;3.23;;
11228;SDS011;5671;47.936;8.716;2023-08-17T00:59:50;5.97;;;2.90;;
11228;SDS011;5671;47.936;8.716;2023-08-17T01:02:17;5.93;;;3.30;;
11228;SDS011;5671;47.936;8.716;2023-08-17T01:04:46;4.27;;;3.30;;
11228;SDS011;5671;47.936;8.716;2023-08-17T01:07:13;5.80;;;2.90;;
11228;SDS011;5671;47.936;8.716;2023-08-17T01:09:39;7.33;;;3.03;;
11228;SDS011;5671;47.936;8.716;2023-08-17T01:12:08;8.73;;;3.17;;
11228;SDS011;5671;47.936;8.716;2023-08-17T01:14:43;5.50;;;3.20;;
11228;SDS011;5671;47.936;8.716;2023-08-17T01:17:17;9.23;;;4.03;;
11228;SDS011;5671;47.936;8.716;2023-08-17T01:19:50;5.23;;;4.00;;
11228;SDS011;5671;47.936;8.716;2023-08-17T01:22:18;8.07;;;3.90;;
11228;SDS011;5671;47.936;8.716;2023-08-17T01:24:49;4.33;;;3.70;;
11228;SDS011;5671;47.936;8.716;2023-08-17T01:27:22;7.40;;;3.87;;
11228;SDS011;5671;47.936;8.716;2023-08-17T01:29:49;4.40;;;3.30;;
11228;SDS011;5671;47.936;8.716;2023-08-17T01:32:17;6.20;;;3.70;;
11228;SDS011;5671;47.936;8.716;2023-08-17T01:34:56;10.93;;;3.77;;
11228;SDS011;5671;47.936;8.716;2023-08-17T01:37:28;11.43;;;3.77;;
11228;SDS011;5671;47.936;8.716;2023-08-17T01:39:59;11.90;;;3.70;;
11228;SDS011;5671;47.936;8.716;2023-08-17T01:42:26;3.43;;;3.13;;
11228;SDS011;5671;47.936;8.716;2023-08-17T01:44:53;7.00;;;3.33;;
11228;SDS011;5671;47.936;8.716;2023-08-17T01:47:20;5.63;;;3.50;;
11228;SDS011;5671;47.936;8.716;2023-08-17T01:49:48;7.00;;;3.33;;
11228;SDS011;5671;47.936;8.716;2023-08-17T01:52:14;6.20;;;3.70;;
11228;SDS011;5671;47.936;8.716;2023-08-17T01:54:41;5.83;;;3.53;;
11228;SDS011;5671;47.936;8.716;2023-08-17T01:57:09;5.73;;;3.50;;
11228;SDS011;5671;47.936;8.716;2023-08-17T01:59:36;8.90;;;4.07;;
11228;SDS011;5671;47.936;8.716;2023-08-17T02:02:03;7.83;;;3.50;;
11228;SDS011;5671;47.936;8.716;2023-08-17T02:04:30;8.30;;;3.63;;
11228;SDS011;5671;47.936;8.716;2023-08-17T02:06:57;8.30;;;3.17;;
11228;SDS011;5671;47.936;8.716;2023-08-17T02:09:23;6.23;;;3.67;;
11228;SDS011;5671;47.936;8.716;2023-08-17T02:11:50;6.53;;;3.50;;
11228;SDS011;5671;47.936;8.716;2023-08-17T02:14:18;4.83;;;3.37;;
11228;SDS011;5671;47.936;8.716;2023-08-17T02:16:45;6.67;;;3.47;;
11228;SDS011;5671;47.936;8.716;2023-08-17T02:19:12;6.60;;;3.43;;
11228;SDS011;5671;47.936;8.716;2023-08-17T02:21:39;3.97;;;3.50;;
11228;SDS011;5671;47.936;8.716;2023-08-17T02:24:06;8.23;;;3.67;;
11228;SDS011;5671;47.936;8.716;2023-08-17T02:26:32;4.50;;;3.10;;
11228;SDS011;5671;47.936;8.716;2023-08-17T02:28:59;5.10;;;3.30;;
11228;SDS011;5671;47.936;8.716;2023-08-17T02:31:27;5.47;;;3.07;;
11228;SDS011;5671;47.936;8.716;2023-08-17T02:33:53;4.70;;;3.17;;
11228;SDS011;5671;47.936;8.716;2023-08-17T02:36:25;5.37;;;3.43;;
11228;SDS011;5671;47.936;8.716;2023-08-17T02:38:52;8.20;;;3.27;;
11228;SDS011;5671;47.936;8.716;2023-08-17T02:41:19;6.47;;;3.60;;
11228;SDS011;5671;47.936;8.716;2023-08-17T02:43:46;3.53;;;3.03;;
11228;SDS011;5671;47.936;8.716;2023-08-17T02:46:12;5.20;;;3.23;;
11228;SDS011;5671;47.936;8.716;2023-08-17T02:48:41;4.33;;;3.33;;
11228;SDS011;5671;47.936;8.716;2023-08-17T02:51:08;5.70;;;3.33;;
11228;SDS011;5671;47.936;8.716;2023-08-17T02:53:35;3.80;;;3.30;;
11228;SDS011;5671;47.936;8.716;2023-08-17T02:56:02;5.70;;;3.00;;
11228;SDS011;5671;47.936;8.716;2023-08-17T02:58:29;5.00;;;3.40;;
11228;SDS011;5671;47.936;8.716;2023-08-17T03:00:55;5.17;;;3.63;;
11228;SDS011;5671;47.936;8.716;2023-08-17T03:03:22;7.40;;;3.50;;
11228;SDS011;5671;47.936;8.716;2023-08-17T03:05:50;6.10;;;3.93;;
11228;SDS011;5671;47.936;8.716;2023-08-17T03:08:17;8.57;;;4.10;;
11228;SDS011;5671;47.936;8.716;2023-08-17T03:10:44;7.73;;;3.90;;
11228;SDS011;5671;47.936;8.716;2023-08-17T03:13:11;7.73;;;4.33;;
11228;SDS011;5671;47.936;8.716;2023-08-17T03:15:37;5.07;;;4.57;;
11228;SDS011;5671;47.936;8.716;2023-08-17T03:18:05;6.07;;;4.70;;
11228;SDS011;5671;47.936;8.716;2023-08-17T03:20:32;6.37;;;4.83;;
11228;SDS011;5671;47.936;8.716;2023-08-17T03:23:00;8.23;;;5.43;;
11228;SDS011;5671;47.936;8.716;2023-08-17T03:25:27;7.00;;;4.93;;
11228;SDS011;5671;47.936;8.716;2023-08-17T03:27:54;5.70;;;4.63;;
11228;SDS011;5671;47.936;8.716;2023-08-17T03:30:20;10.03;;;6.10;;
11228;SDS011;5671;47.936;8.716;2023-08-17T03:32:47;8.47;;;5.77;;
11228;SDS011;5671;47.936;8.716;2023-08-17T03:35:14;8.27;;;5.90;;
11228;SDS011;5671;47.936;8.716;2023-08-17T03:37:41;6.87;;;4.67;;
11228;SDS011;5671;47.936;8.716;2023-08-17T03:40:09;5.60;;;5.10;;
11228;SDS011;5671;47.936;8.716;2023-08-17T03:42:36;6.53;;;5.63;;
11228;SDS011;5671;47.936;8.716;2023-08-17T03:45:03;6.60;;;5.93;;
11228;SDS011;5671;47.936;8.716;2023-08-17T03:47:31;8.20;;;6.10;;
11228;SDS011;5671;47.936;8.716;2023-08-17T03:49:57;15.93;;;7.00;;
11228;SDS011;5671;47.936;8.716;2023-08-17T03:52:24;9.03;;;8.13;;
11228;SDS011;5671;47.936;8.716;2023-08-17T03:54:51;8.47;;;6.57;;
11228;SDS011;5671;47.936;8.716;2023-08-17T03:57:19;11.47;;;7.43;;
11228;SDS011;5671;47.936;8.716;2023-08-17T03:59:46;8.57;;;7.07;;
11228;SDS011;5671;47.936;8.716;2023-08-17T04:02:13;8.17;;;6.43;;
11228;SDS011;5671;47.936;8.716;2023-08-17T04:04:39;7.43;;;6.83;;
11228;SDS011;5671;47.936;8.716;2023-08-17T04:07:06;9.80;;;6.30;;
11228;SDS011;5671;47.936;8.716;2023-08-17T04:09:33;6.63;;;5.50;;
11228;SDS011;5671;47.936;8.716;2023-08-17T04:12:00;10.83;;;4.90;;
11228;SDS011;5671;47.936;8.716;2023-08-17T04:14:30;5.97;;;5.37;;
11228;SDS011;5671;47.936;8.716;2023-08-17T04:16:57;5.23;;;4.70;;
11228;SDS011;5671;47.936;8.716;2023-08-17T04:19:24;7.23;;;4.83;;
11228;SDS011;5671;47.936;8.716;2023-08-17T04:21:50;6.10;;;4.77;;
11228;SDS011;5671;47.936;8.716;2023-08-17T04:24:17;6.80;;;5.10;;
11228;SDS011;5671;47.936;8.716;2023-08-17T04:26:44;15.50;;;6.30;;
11228;SDS011;5671;47.936;8.716;2023-08-17T04:29:11;57.33;;;8.70;;
11228;SDS011;5671;47.936;8.716;2023-08-17T04:31:39;10.67;;;6.13;;
11228;SDS011;5671;47.936;8.716;2023-08-17T04:34:06;7.10;;;4.60;;
11228;SDS011;5671;47.936;8.716;2023-08-17T04:36:33;6.03;;;5.30;;
11228;SDS011;5671;47.936;8.716;2023-08-17T04:39:00;7.60;;;6.13;;
11228;SDS011;5671;47.936;8.716;2023-08-17T04:41:26;9.03;;;5.87;;
11228;SDS011;5671;47.936;8.716;2023-08-17T04:43:53;7.57;;;6.20;;
11228;SDS011;5671;47.936;8.716;2023-08-17T04:46:20;6.60;;;6.00;;
11228;SDS011;5671;47.936;8.716;2023-08-17T04:48:48;6.43;;;5.73;;
11228;SDS011;5671;47.936;8.716;2023-08-17T04:51:15;8.37;;;5.07;;
11228;SDS011;5671;47.936;8.716;2023-08-17T04:53:42;5.93;;;4.10;;
11228;SDS011;5671;47.936;8.716;2023-08-17T04:56:09;5.30;;;4.80;;
11228;SDS011;5671;47.936;8.716;2023-08-17T04:58:36;3.83;;;3.33;;
11228;SDS011;5671;47.936;8.716;2023-08-17T05:01:02;3.67;;;3.37;;
11228;SDS011;5671;47.936;8.716;2023-08-17T05:03:29;7.03;;;5.57;;
11228;SDS011;5671;47.936;8.716;2023-08-17T05:06:00;10.37;;;6.03;;
11228;SDS011;5671;47.936;8.716;2023-08-17T05:08:26;8.83;;;6.63;;
11228;SDS011;5671;47.936;8.716;2023-08-17T05:10:53;6.73;;;6.10;;
11228;SDS011;5671;47.936;8.716;2023-08-17T05:13:20;8.40;;;5.80;;
11228;SDS011;5671;47.936;8.716;2023-08-17T05:15:47;8.53;;;6.37;;
11228;SDS011;5671;47.936;8.716;2023-08-17T05:18:14;9.67;;;6.67;;
11228;SDS011;5671;47.936;8.716;2023-08-17T05:20:40;10.10;;;6.97;;
11228;SDS011;5671;47.936;8.716;2023-08-17T05:23:08;7.37;;;6.67;;
11228;SDS011;5671;47.936;8.716;2023-08-17T05:25:35;8.27;;;7.23;;
11228;SDS011;5671;47.936;8.716;2023-08-17T05:28:02;7.30;;;6.50;;
11228;SDS011;5671;47.936;8.716;2023-08-17T05:30:29;6.20;;;5.33;;
11228;SDS011;5671;47.936;8.716;2023-08-17T05:32:56;7.00;;;6.30;;
11228;SDS011;5671;47.936;8.716;2023-08-17T05:35:22;7.53;;;6.80;;
11228;SDS011;5671;47.936;8.716;2023-08-17T05:37:49;7.67;;;5.90;;
11228;SDS011;5671;47.936;8.716;2023-08-17T05:40:17;6.87;;;5.93;;
11228;SDS011;5671;47.936;8.716;2023-08-17T05:42:44;6.10;;;5.50;;
11228;SDS011;5671;47.936;8.716;2023-08-17T05:45:11;6.07;;;5.17;;
11228;SDS011;5671;47.936;8.716;2023-08-17T05:47:38;6.47;;;5.73;;
11228;SDS011;5671;47.936;8.716;2023-08-17T05:50:05;8.60;;;5.33;;
11228;SDS011;5671;47.936;8.716;2023-08-17T05:52:32;8.10;;;4.70;;
11228;SDS011;5671;47.936;8.716;2023-08-17T05:54:59;5.43;;;4.90;;
11228;SDS011;5671;47.936;8.716;2023-08-17T05:57:28;5.00;;;4.23;;
11228;SDS011;5671;47.936;8.716;2023-08-17T05:59:55;5.43;;;3.80;;
11228;SDS011;5671;47.936;8.716;2023-08-17T06:02:21;5.37;;;3.50;;
11228;SDS011;5671;47.936;8.716;2023-08-17T06:04:48;3.57;;;3.27;;
11228;SDS011;5671;47.936;8.716;2023-08-17T06:07:15;6.10;;;3.20;;
11228;SDS011;5671;47.936;8.716;2023-08-17T06:09:42;6.47;;;3.93;;
11228;SDS011;5671;47.936;8.716;2023-08-17T06:12:09;3.43;;;3.13;;
11228;SDS011;5671;47.936;8.716;2023-08-17T06:14:37;5.17;;;3.97;;
11228;SDS011;5671;47.936;8.716;2023-08-17T06:17:04;6.27;;;4.67;;
11228;SDS011;5671;47.936;8.716;2023-08-17T06:19:30;4.40;;;4.00;;
11228;SDS011;5671;47.936;8.716;2023-08-17T06:21:58;4.57;;;4.13;;
11228;SDS011;5671;47.936;8.716;2023-08-17T06:24:25;6.00;;;3.97;;
11228;SDS011;5671;47.936;8.716;2023-08-17T06:26:52;5.93;;;3.87;;
11228;SDS011;5671;47.936;8.716;2023-08-17T06:29:18;6.30;;;4.50;;
11228;SDS011;5671;47.936;8.716;2023-08-17T06:31:46;4.97;;;4.37;;
11228;SDS011;5671;47.936;8.716;2023-08-17T06:34:13;5.23;;;4.40;;
11228;SDS011;5671;47.936;8.716;2023-08-17T06:36:40;5.13;;;4.73;;
11228;SDS011;5671;47.936;8.716;2023-08-17T06:39:07;5.33;;;4.87;;
11228;SDS011;5671;47.936;8.716;2023-08-17T06:41:34;6.40;;;5.50;;
11228;SDS011;5671;47.936;8.716;2023-08-17T06:44:01;5.67;;;5.07;;
11228;SDS011;5671;47.936;8.716;2023-08-17T06:46:28;7.17;;;5.33;;
11228;SDS011;5671;47.936;8.716;2023-08-17T06:48:56;5.93;;;5.00;;
11228;SDS011;5671;47.936;8.716;2023-08-17T06:51:23;4.90;;;4.50;;
11228;SDS011;5671;47.936;8.716;2023-08-17T06:53:50;4.83;;;4.37;;
11228;SDS011;5671;47.936;8.716;2023-08-17T06:56:17;5.13;;;4.63;;
11228;SDS011;5671;47.936;8.716;2023-08-17T06:58:44;9.07;;;5.03;;
11228;SDS011;5671;47.936;8.716;2023-08-17T07:01:10;5.17;;;4.40;;
11228;SDS011;5671;47.936;8.716;2023-08-17T07:03:37;7.27;;;4.63;;
11228;SDS011;5671;47.936;8.716;2023-08-17T07:06:05;7.67;;;4.50;;
11228;SDS011;5671;47.936;8.716;2023-08-17T07:08:32;4.57;;;4.13;;
11228;SDS011;5671;47.936;8.716;2023-08-17T07:10:59;5.47;;;3.93;;
11228;SDS011;5671;47.936;8.716;2023-08-17T07:13:26;7.30;;;4.30;;
11228;SDS011;5671;47.936;8.716;2023-08-17T07:15:52;4.60;;;4.20;;
11228;SDS011;5671;47.936;8.716;2023-08-17T07:18:19;5.63;;;4.10;;
11228;SDS011;5671;47.936;8.716;2023-08-17T07:20:46;5.17;;;4.27;;
11228;SDS011;5671;47.936;8.716;2023-08-17T07:23:15;5.23;;;4.67;;
11228;SDS011;5671;47.936;8.716;2023-08-17T07:25:42;6.07;;;3.70;;
11228;SDS011;5671;47.936;8.716;2023-08-17T07:28:09;6.70;;;4.30;;
11228;SDS011;5671;47.936;8.716;2023-08-17T07:30:36;6.73;;;4.00;;
11228;SDS011;5671;47.936;8.716;2023-08-17T07:33:03;3.90;;;3.60;;
11228;SDS011;5671;47.936;8.716;2023-08-17T07:35:30;5.03;;;3.70;;
11228;SDS011;5671;47.936;8.716;2023-08-17T07:37:57;5.37;;;3.57;;
11228;SDS011;5671;47.936;8.716;2023-08-17T07:40:25;4.53;;;4.00;;
11228;SDS011;5671;47.936;8.716;2023-08-17T07:42:52;6.70;;;4.13;;
11228;SDS011;5671;47.936;8.716;2023-08-17T07:45:19;4.33;;;3.93;;
11228;SDS011;5671;47.936;8.716;2023-08-17T07:47:45;8.07;;;4.00;;
11228;SDS011;5671;47.936;8.716;2023-08-17T07:50:12;5.97;;;4.50;;
11228;SDS011;5671;47.936;8.716;2023-08-17T07:52:39;5.40;;;3.80;;
11228;SDS011;5671;47.936;8.716;2023-08-17T07:55:06;5.07;;;4.10;;
11228;SDS011;5671;47.936;8.716;2023-08-17T07:57:34;4.33;;;3.70;;
11228;SDS011;5671;47.936;8.716;2023-08-17T08:00:01;4.30;;;3.80;;
11228;SDS011;5671;47.936;8.716;2023-08-17T08:02:29;8.03;;;4.10;;
11228;SDS011;5671;47.936;8.716;2023-08-17T08:04:56;4.23;;;3.67;;
11228;SDS011;5671;47.936;8.716;2023-08-17T08:07:23;5.30;;;3.70;;
11228;SDS011;5671;47.936;8.716;2023-08-17T08:09:49;6.37;;;3.97;;
11228;SDS011;5671;47.936;8.716;2023-08-17T08:12:16;4.67;;;4.00;;
11228;SDS011;5671;47.936;8.716;2023-08-17T08:14:44;8.80;;;3.87;;
11228;SDS011;5671;47.936;8.716;2023-08-17T08:17:11;4.37;;;3.77;;
11228;SDS011;5671;47.936;8.716;2023-08-17T08:19:38;4.40;;;3.67;;
11228;SDS011;5671;47.936;8.716;2023-08-17T08:22:05;5.03;;;3.83;;
11228;SDS011;5671;47.936;8.716;2023-08-17T08:24:32;7.70;;;3.87;;
11228;SDS011;5671;47.936;8.716;2023-08-17T08:26:59;5.80;;;3.80;;
11228;SDS011;5671;47.936;8.716;2023-08-17T08:29:26;5.10;;;3.50;;
11228;SDS011;5671;47.936;8.716;2023-08-17T08:31:54;9.73;;;3.93;;
11228;SDS011;5671;47.936;8.716;2023-08-17T08:34:22;5.20;;;4.10;;
11228;SDS011;5671;47.936;8.716;2023-08-17T08:36:49;4.67;;;3.60;;
11228;SDS011;5671;47.936;8.716;2023-08-17T08:39:16;4.30;;;3.67;;
11228;SDS011;5671;47.936;8.716;2023-08-17T08:41:43;3.83;;;3.40;;
11228;SDS011;5671;47.936;8.716;2023-08-17T08:44:10;4.67;;;3.90;;
11228;SDS011;5671;47.936;8.716;2023-08-17T08:46:37;3.90;;;3.40;;
11228;SDS011;5671;47.936;8.716;2023-08-17T08:49:08;8.63;;;3.57;;
11228;SDS011;5671;47.936;8.716;2023-08-17T08:51:37;6.30;;;3.70;;
11228;SDS011;5671;47.936;8.716;2023-08-17T08:54:08;7.03;;;3.70;;
11228;SDS011;5671;47.936;8.716;2023-08-17T08:56:39;5.60;;;3.20;;
11228;SDS011;5671;47.936;8.716;2023-08-17T08:59:08;4.50;;;3.33;;
11228;SDS011;5671;47.936;8.716;2023-08-17T09:01:36;3.87;;;3.33;;
11228;SDS011;5671;47.936;8.716;2023-08-17T09:04:04;4.00;;;3.67;;
11228;SDS011;5671;47.936;8.716;2023-08-17T09:06:33;5.67;;;3.43;;
11228;SDS011;5671;47.936;8.716;2023-08-17T09:09:00;7.10;;;3.87;;
11228;SDS011;5671;47.936;8.716;2023-08-17T09:11:28;3.87;;;3.47;;
11228;SDS011;5671;47.936;8.716;2023-08-17T09:13:56;6.77;;;4.07;;
11228;SDS011;5671;47.936;8.716;2023-08-17T09:16:23;4.53;;;3.80;;
11228;SDS011;5671;47.936;8.716;2023-08-17T09:18:49;4.47;;;3.63;;
11228;SDS011;5671;47.936;8.716;2023-08-17T09:21:21;7.43;;;3.73;;
11228;SDS011;5671;47.936;8.716;2023-08-17T09:23:53;4.40;;;3.47;;
11228;SDS011;5671;47.936;8.716;2023-08-17T09:26:21;5.00;;;3.70;;
11228;SDS011;5671;47.936;8.716;2023-08-17T09:28:48;5.70;;;3.83;;
11228;SDS011;5671;47.936;8.716;2023-08-17T09:31:15;4.10;;;3.70;;
11228;SDS011;5671;47.936;8.716;2023-08-17T09:33:48;4.53;;;3.67;;
11228;SDS011;5671;47.936;8.716;2023-08-17T09:36:19;4.70;;;4.10;;
11228;SDS011;5671;47.936;8.716;2023-08-17T09:38:47;4.40;;;3.87;;
11228;SDS011;5671;47.936;8.716;2023-08-17T09:41:16;4.63;;;4.23;;
11228;SDS011;5671;47.936;8.716;2023-08-17T09:43:44;4.43;;;4.00;;
11228;SDS011;5671;47.936;8.716;2023-08-17T09:46:11;5.80;;;3.80;;
11228;SDS011;5671;47.936;8.716;2023-08-17T09:48:38;5.97;;;3.73;;
11228;SDS011;5671;47.936;8.716;2023-08-17T09:51:05;5.33;;;3.30;;
11228;SDS011;5671;47.936;8.716;2023-08-17T09:53:34;5.73;;;3.70;;
11228;SDS011;5671;47.936;8.716;2023-08-17T09:56:03;7.20;;;3.40;;
11228;SDS011;5671;47.936;8.716;2023-08-17T09:58:33;5.10;;;3.77;;
11228;SDS011;5671;47.936;8.716;2023-08-17T10:01:02;6.77;;;3.20;;
11228;SDS011;5671;47.936;8.716;2023-08-17T10:03:31;3.93;;;3.00;;
11228;SDS011;5671;47.936;8.716;2023-08-17T10:06:01;3.47;;;3.17;;
11228;SDS011;5671;47.936;8.716;2023-08-17T10:08:31;3.93;;;3.50;;
11228;SDS011;5671;47.936;8.716;2023-08-17T10:11:02;5.03;;;3.70;;
11228;SDS011;5671;47.936;8.716;2023-08-17T10:13:34;4.67;;;3.70;;
11228;SDS011;5671;47.936;8.716;2023-08-17T10:16:06;3.67;;;3.27;;
11228;SDS011;5671;47.936;8.716;2023-08-17T10:18:39;6.47;;;3.47;;
11228;SDS011;5671;47.936;8.716;2023-08-17T10:21:13;4.93;;;3.70;;
11228;SDS011;5671;47.936;8.716;2023-08-17T10:23:47;5.07;;;3.43;;
11228;SDS011;5671;47.936;8.716;2023-08-17T10:26:15;4.90;;;3.20;;
11228;SDS011;5671;47.936;8.716;2023-08-17T10:28:44;4.33;;;3.60;;
11228;SDS011;5671;47.936;8.716;2023-08-17T10:31:11;12.07;;;3.63;;
11228;SDS011;5671;47.936;8.716;2023-08-17T10:33:39;3.77;;;3.23;;
11228;SDS011;5671;47.936;8.716;2023-08-17T10:36:09;5.57;;;3.50;;
11228;SDS011;5671;47.936;8.716;2023-08-17T10:38:37;6.63;;;3.57;;
11228;SDS011;5671;47.936;8.716;2023-08-17T10:41:07;8.30;;;3.80;;
11228;SDS011;5671;47.936;8.716;2023-08-17T10:43:49;4.73;;;3.30;;
11228;SDS011;5671;47.936;8.716;2023-08-17T10:46:19;4.77;;;3.80;;
11228;SDS011;5671;47.936;8.716;2023-08-17T10:48:46;4.13;;;3.47;;
11228;SDS011;5671;47.936;8.716;2023-08-17T10:51:13;8.80;;;3.67;;
11228;SDS011;5671;47.936;8.716;2023-08-17T10:53:42;8.93;;;3.50;;
11228;SDS011;5671;47.936;8.716;2023-08-17T10:56:10;8.00;;;3.63;;
11228;SDS011;5671;47.936;8.716;2023-08-17T10:58:38;4.97;;;3.43;;
11228;SDS011;5671;47.936;8.716;2023-08-17T11:29:24;4.20;;;2.80;;
11228;SDS011;5671;47.936;8.716;2023-08-17T11:31:57;7.00;;;3.10;;
11228;SDS011;5671;47.936;8.716;2023-08-17T11:34:24;5.23;;;2.80;;
11228;SDS011;5671;47.936;8.716;2023-08-17T11:36:56;5.70;;;2.70;;
11228;SDS011;5671;47.936;8.716;2023-08-17T11:39:23;4.67;;;2.47;;
11228;SDS011;5671;47.936;8.716;2023-08-17T11:41:50;9.37;;;3.00;;
11228;SDS011;5671;47.936;8.716;2023-08-17T11:44:18;6.97;;;2.97;;
11228;SDS011;5671;47.936;8.716;2023-08-17T11:46:48;9.17;;;3.10;;
11228;SDS011;5671;47.936;8.716;2023-08-17T11:49:14;5.73;;;2.50;;
11228;SDS011;5671;47.936;8.716;2023-08-17T11:51:43;10.50;;;3.00;;
11228;SDS011;5671;47.936;8.716;2023-08-17T11:54:10;6.17;;;3.17;;
11228;SDS011;5671;47.936;8.716;2023-08-17T11:56:37;8.70;;;2.83;;
11228;SDS011;5671;47.936;8.716;2023-08-17T11:59:10;8.27;;;3.47;;
11228;SDS011;5671;47.936;8.716;2023-08-17T12:01:39;9.93;;;3.60;;
11228;SDS011;5671;47.936;8.716;2023-08-17T12:04:07;8.03;;;3.40;;
11228;SDS011;5671;47.936;8.716;2023-08-17T12:06:35;4.03;;;2.80;;
11228;SDS011;5671;47.936;8.716;2023-08-17T12:09:07;4.77;;;2.97;;
11228;SDS011;5671;47.936;8.716;2023-08-17T12:11:34;4.40;;;2.63;;
11228;SDS011;5671;47.936;8.716;2023-08-17T12:14:08;6.73;;;2.90;;
11228;SDS011;5671;47.936;8.716;2023-08-17T12:16:44;3.70;;;2.97;;
11228;SDS011;5671;47.936;8.716;2023-08-17T12:19:14;7.60;;;3.30;;
11228;SDS011;5671;47.936;8.716;2023-08-17T12:21:41;5.27;;;3.23;;
11228;SDS011;5671;47.936;8.716;2023-08-17T12:24:09;8.93;;;3.50;;
11228;SDS011;5671;47.936;8.716;2023-08-17T12:26:40;6.10;;;3.63;;
11228;SDS011;5671;47.936;8.716;2023-08-17T12:29:08;7.00;;;3.60;;
11228;SDS011;5671;47.936;8.716;2023-08-17T12:31:34;8.87;;;4.10;;
11228;SDS011;5671;47.936;8.716;2023-08-17T12:34:02;5.10;;;3.50;;
11228;SDS011;5671;47.936;8.716;2023-08-17T12:36:31;5.40;;;3.63;;
11228;SDS011;5671;47.936;8.716;2023-08-17T12:38:58;5.33;;;3.37;;
11228;SDS011;5671;47.936;8.716;2023-08-17T12:41:25;9.30;;;3.93;;
11228;SDS011;5671;47.936;8.716;2023-08-17T12:43:52;5.27;;;3.53;;
11228;SDS011;5671;47.936;8.716;2023-08-17T12:46:19;6.97;;;3.60;;
11228;SDS011;5671;47.936;8.716;2023-08-17T12:48:46;7.40;;;3.80;;
11228;SDS011;5671;47.936;8.716;2023-08-17T12:51:13;6.67;;;4.07;;
11228;SDS011;5671;47.936;8.716;2023-08-17T12:53:42;8.77;;;3.87;;
11228;SDS011;5671;47.936;8.716;2023-08-17T12:56:09;9.83;;;4.00;;
11228;SDS011;5671;47.936;8.716;2023-08-17T12:58:36;8.83;;;3.80;;
11228;SDS011;5671;47.936;8.716;2023-08-17T13:01:02;6.90;;;3.63;;
11228;SDS011;5671;47.936;8.716;2023-08-17T13:03:30;5.33;;;3.03;;
11228;SDS011;5671;47.936;8.716;2023-08-17T13:05:57;5.43;;;4.10;;
11228;SDS011;5671;47.936;8.716;2023-08-17T13:08:24;4.20;;;3.50;;
11228;SDS011;5671;47.936;8.716;2023-08-17T13:10:52;6.90;;;3.80;;
11228;SDS011;5671;47.936;8.716;2023-08-17T13:13:19;10.03;;;3.60;;
11228;SDS011;5671;47.936;8.716;2023-08-17T13:15:46;5.93;;;3.60;;
11228;SDS011;5671;47.936;8.716;2023-08-17T13:18:13;8.97;;;4.30;;
11228;SDS011;5671;47.936;8.716;2023-08-17T13:20:40;5.93;;;4.17;;
11228;SDS011;5671;47.936;8.716;2023-08-17T13:23:07;6.40;;;3.67;;
11228;SDS011;5671;47.936;8.716;2023-08-17T13:25:34;5.60;;;3.60;;
11228;SDS011;5671;47.936;8.716;2023-08-17T13:28:03;7.83;;;4.07;;
11228;SDS011;5671;47.936;8.716;2023-08-17T13:30:30;6.70;;;3.83;;
11228;SDS011;5671;47.936;8.716;2023-08-17T13:32:57;6.83;;;3.80;;
11228;SDS011;5671;47.936;8.716;2023-08-17T13:35:23;9.30;;;4.23;;
11228;SDS011;5671;47.936;8.716;2023-08-17T13:37:51;12.60;;;3.80;;
11228;SDS011;5671;47.936;8.716;2023-08-17T13:40:18;7.23;;;4.00;;
11228;SDS011;5671;47.936;8.716;2023-08-17T13:42:45;8.70;;;3.87;;
11228;SDS011;5671;47.936;8.716;2023-08-17T13:45:13;6.53;;;3.97;;
11228;SDS011;5671;47.936;8.716;2023-08-17T13:47:40;6.10;;;4.20;;
11228;SDS011;5671;47.936;8.716;2023-08-17T13:50:07;7.13;;;4.10;;
11228;SDS011;5671;47.936;8.716;2023-08-17T13:52:34;7.13;;;3.97;;
11228;SDS011;5671;47.936;8.716;2023-08-17T13:55:01;8.30;;;4.33;;
11228;SDS011;5671;47.936;8.716;2023-08-17T13:57:28;6.93;;;4.13;;
11228;SDS011;5671;47.936;8.716;2023-08-17T13:59:55;8.17;;;4.70;;
11228;SDS011;5671;47.936;8.716;2023-08-17T14:02:23;8.10;;;4.50;;
11228;SDS011;5671;47.936;8.716;2023-08-17T14:04:50;11.03;;;4.23;;
11228;SDS011;5671;47.936;8.716;2023-08-17T14:07:17;6.63;;;4.07;;
11228;SDS011;5671;47.936;8.716;2023-08-17T14:09:44;5.33;;;4.40;;
11228;SDS011;5671;47.936;8.716;2023-08-17T14:12:11;7.20;;;4.50;;
11228;SDS011;5671;47.936;8.716;2023-08-17T14:14:38;5.17;;;4.17;;
11228;SDS011;5671;47.936;8.716;2023-08-17T14:17:04;6.30;;;4.13;;
11228;SDS011;5671;47.936;8.716;2023-08-17T14:19:33;9.67;;;4.10;;
11228;SDS011;5671;47.936;8.716;2023-08-17T14:21:59;5.90;;;4.33;;
11228;SDS011;5671;47.936;8.716;2023-08-17T14:24:26;7.00;;;3.80;;
11228;SDS011;5671;47.936;8.716;2023-08-17T14:26:53;4.10;;;3.80;;
11228;SDS011;5671;47.936;8.716;2023-08-17T14:29:21;6.17;;;4.00;;
11228;SDS011;5671;47.936;8.716;2023-08-17T14:31:48;8.20;;;4.23;;
11228;SDS011;5671;47.936;8.716;2023-08-17T14:34:17;7.50;;;3.93;;
11228;SDS011;5671;47.936;8.716;2023-08-17T14:36:45;7.27;;;4.43;;
11228;SDS011;5671;47.936;8.716;2023-08-17T14:39:12;5.50;;;4.17;;
11228;SDS011;5671;47.936;8.716;2023-08-17T14:41:39;5.73;;;3.80;;
11228;SDS011;5671;47.936;8.716;2023-08-17T14:44:06;6.93;;;4.33;;
11228;SDS011;5671;47.936;8.716;2023-08-17T14:46:33;7.27;;;4.23;;
11228;SDS011;5671;47.936;8.716;2023-08-17T14:49:00;5.90;;;3.90;;
11228;SDS011;5671;47.936;8.716;2023-08-17T14:51:27;7.73;;;3.90;;
11228;SDS011;5671;47.936;8.716;2023-08-17T14:53:56;5.57;;;3.97;;
11228;SDS011;5671;47.936;8.716;2023-08-17T14:56:23;6.10;;;4.13;;
11228;SDS011;5671;47.936;8.716;2023-08-17T14:58:49;5.50;;;3.93;;
11228;SDS011;5671;47.936;8.716;2023-08-17T15:01:16;5.57;;;3.37;;
11228;SDS011;5671;47.936;8.716;2023-08-17T15:03:43;5.27;;;4.20;;
11228;SDS011;5671;47.936;8.716;2023-08-17T15:06:10;5.97;;;4.00;;
11228;SDS011;5671;47.936;8.716;2023-08-17T15:08:36;6.73;;;4.00;;
11228;SDS011;5671;47.936;8.716;2023-08-17T15:11:05;5.00;;;3.80;;
11228;SDS011;5671;47.936;8.716;2023-08-17T15:13:31;5.97;;;3.73;;
11228;SDS011;5671;47.936;8.716;2023-08-17T15:15:58;5.57;;;3.90;;
11228;SDS011;5671;47.936;8.716;2023-08-17T15:18:25;5.90;;;4.00;;
11228;SDS011;5671;47.936;8.716;2023-08-17T15:20:52;5.17;;;3.67;;
11228;SDS011;5671;47.936;8.716;2023-08-17T15:23:19;6.93;;;4.10;;
11228;SDS011;5671;47.936;8.716;2023-08-17T15:25:45;6.57;;;3.90;;
11228;SDS011;5671;47.936;8.716;2023-08-17T15:28:14;6.97;;;4.57;;
11228;SDS011;5671;47.936;8.716;2023-08-17T15:30:40;4.00;;;3.60;;